To NAV CANADA Home Page Login to a new session Search on AWWS site Feedback and Comments Disclaimer Vers la page française équivalente Tips FAQ What's new on the site To the Forecasts and Observations / NOTAM section To "File a Flight Plan" website Publications and other links Update of the User's profile FIC Telephone Numbers My Weather Data Folder Route Weather Data Regional Weather Data Local Weather Data To the Forecasts and Observations / NOTAM section
Request Generated 04/24/2014 at 12:53:11 UTC . Weather information available at that time is displayed.

METAR/TAF

LOURDES-DE-BLANC-SABLON/QC    

METAR CYBX 241200Z 06021G28KT 15SM BKN030 OVC060 M01/M04 A2999 RMK SC6SC2 SLP159=
METAR CYBX 241100Z 06021KT 15SM FEW020 OVC060 M01/M04 A2999 RMK CF2SC6 SLP157=
METAR CYBX 241000Z 06018KT 15SM FEW020 BKN040 BKN100 M01/M04 A2998 RMK CF1SC7AC1 CF TR AC TR SLP155=

TAF CYBX 240738Z 2408/2420 06017G27KT P6SM FEW015 OVC040 TEMPO
2408/2420 BKN015 OVC030
BECMG 2411/2413 06020G30KT
RMK NXT FCST BY 241400Z=
Your time UTC time
Weather data provided by Environment Canada and NAV CANADA